sensor_id;sensor_type;location;lat;lon;timestamp;pressure;altitude;pressure_sealevel;temperature;humidity
77147;BME280;66121;52.584;9.694;2024-03-23T00:54:16;100460.97;;;7.29;100.00
77147;BME280;66121;52.584;9.694;2024-03-23T00:56:41;100447.19;;;7.25;100.00
77147;BME280;66121;52.584;9.694;2024-03-23T00:59:06;100441.75;;;7.29;100.00
77147;BME280;66121;52.584;9.694;2024-03-23T01:01:32;100419.63;;;7.18;100.00
77147;BME280;66121;52.584;9.694;2024-03-23T01:03:57;100440.09;;;7.24;100.00
77147;BME280;66121;52.584;9.694;2024-03-23T01:06:22;100442.25;;;7.11;100.00
77147;BME280;66121;52.584;9.694;2024-03-23T01:08:48;100431.28;;;7.11;100.00
77147;BME280;66121;52.584;9.694;2024-03-23T01:11:14;100415.84;;;7.03;100.00
77147;BME280;66121;52.584;9.694;2024-03-23T01:13:39;100434.09;;;7.15;100.00
77147;BME280;66121;52.584;9.694;2024-03-23T01:16:05;100417.56;;;7.11;100.00
77147;BME280;66121;52.584;9.694;2024-03-23T01:18:30;100423.56;;;7.21;100.00
77147;BME280;66121;52.584;9.694;2024-03-23T01:20:55;100419.25;;;7.20;100.00
77147;BME280;66121;52.584;9.694;2024-03-23T01:23:21;100406.66;;;7.15;100.00
77147;BME280;66121;52.584;9.694;2024-03-23T01:25:53;100382.00;;;6.96;100.00
77147;BME280;66121;52.584;9.694;2024-03-23T01:28:21;100410.47;;;7.10;100.00
77147;BME280;66121;52.584;9.694;2024-03-23T01:30:47;100404.69;;;7.15;100.00
77147;BME280;66121;52.584;9.694;2024-03-23T01:33:13;100407.50;;;7.19;100.00
77147;BME280;66121;52.584;9.694;2024-03-23T01:35:38;100401.50;;;7.13;100.00
77147;BME280;66121;52.584;9.694;2024-03-23T01:38:03;100402.19;;;7.07;100.00
77147;BME280;66121;52.584;9.694;2024-03-23T01:40:29;100408.84;;;7.06;100.00
77147;BME280;66121;52.584;9.694;2024-03-23T01:43:04;100396.59;;;7.00;100.00
77147;BME280;66121;52.584;9.694;2024-03-23T01:45:30;100402.91;;;7.04;100.00
77147;BME280;66121;52.584;9.694;2024-03-23T01:47:56;100390.38;;;7.03;100.00
77147;BME280;66121;52.584;9.694;2024-03-23T01:50:21;100380.56;;;7.02;100.00
77147;BME280;66121;52.584;9.694;2024-03-23T01:52:48;100377.41;;;7.00;100.00
77147;BME280;66121;52.584;9.694;2024-03-23T01:55:13;100373.97;;;7.06;100.00
77147;BME280;66121;52.584;9.694;2024-03-23T01:57:39;100364.59;;;7.07;100.00
77147;BME280;66121;52.584;9.694;2024-03-23T02:00:05;100370.41;;;7.06;100.00
77147;BME280;66121;52.584;9.694;2024-03-23T02:02:31;100357.88;;;7.05;100.00
77147;BME280;66121;52.584;9.694;2024-03-23T02:04:56;100363.72;;;7.03;100.00
77147;BME280;66121;52.584;9.694;2024-03-23T02:07:22;100357.81;;;7.01;100.00
77147;BME280;66121;52.584;9.694;2024-03-23T02:09:49;100353.00;;;6.95;100.00
77147;BME280;66121;52.584;9.694;2024-03-23T02:12:15;100347.09;;;6.93;100.00
77147;BME280;66121;52.584;9.694;2024-03-23T02:14:41;100346.72;;;6.94;100.00
77147;BME280;66121;52.584;9.694;2024-03-23T02:17:06;100347.88;;;6.93;100.00
77147;BME280;66121;52.584;9.694;2024-03-23T02:19:31;100353.84;;;6.99;100.00
77147;BME280;66121;52.584;9.694;2024-03-23T02:21:57;100353.16;;;7.05;100.00
77147;BME280;66121;52.584;9.694;2024-03-23T02:24:22;100358.53;;;6.98;100.00
77147;BME280;66121;52.584;9.694;2024-03-23T02:26:47;100341.72;;;7.00;100.00
77147;BME280;66121;52.584;9.694;2024-03-23T02:29:13;100339.72;;;6.97;100.00
77147;BME280;66121;52.584;9.694;2024-03-23T02:31:39;100340.63;;;7.04;100.00
77147;BME280;66121;52.584;9.694;2024-03-23T02:34:04;100339.81;;;7.04;100.00
77147;BME280;66121;52.584;9.694;2024-03-23T02:36:29;100337.47;;;7.02;100.00
77147;BME280;66121;52.584;9.694;2024-03-23T02:38:56;100334.72;;;7.02;100.00
77147;BME280;66121;52.584;9.694;2024-03-23T02:41:21;100331.59;;;7.04;100.00
77147;BME280;66121;52.584;9.694;2024-03-23T02:43:52;100325.94;;;6.93;100.00
77147;BME280;66121;52.584;9.694;2024-03-23T02:46:17;100316.06;;;6.89;100.00
77147;BME280;66121;52.584;9.694;2024-03-23T02:48:43;100303.22;;;6.93;100.00
77147;BME280;66121;52.584;9.694;2024-03-23T02:51:08;100323.38;;;7.04;100.00
77147;BME280;66121;52.584;9.694;2024-03-23T02:53:34;100327.34;;;6.84;100.00
77147;BME280;66121;52.584;9.694;2024-03-23T02:55:59;100315.22;;;6.85;100.00
77147;BME280;66121;52.584;9.694;2024-03-23T02:58:25;100311.09;;;6.72;100.00
77147;BME280;66121;52.584;9.694;2024-03-23T03:00:50;100278.28;;;6.53;100.00
77147;BME280;66121;52.584;9.694;2024-03-23T03:03:15;100300.44;;;6.67;100.00
77147;BME280;66121;52.584;9.694;2024-03-23T03:05:40;100301.47;;;6.59;100.00
77147;BME280;66121;52.584;9.694;2024-03-23T03:08:06;100300.31;;;6.60;100.00
77147;BME280;66121;52.584;9.694;2024-03-23T03:10:31;100297.91;;;6.58;100.00
77147;BME280;66121;52.584;9.694;2024-03-23T03:13:00;100296.41;;;6.61;100.00
77147;BME280;66121;52.584;9.694;2024-03-23T03:15:25;100292.59;;;6.65;100.00
77147;BME280;66121;52.584;9.694;2024-03-23T03:17:51;100298.78;;;6.62;100.00
77147;BME280;66121;52.584;9.694;2024-03-23T03:20:16;100299.13;;;6.61;100.00
77147;BME280;66121;52.584;9.694;2024-03-23T03:22:43;100301.84;;;6.57;100.00
77147;BME280;66121;52.584;9.694;2024-03-23T03:25:08;100284.47;;;6.49;100.00
77147;BME280;66121;52.584;9.694;2024-03-23T03:27:33;100295.25;;;6.62;100.00
77147;BME280;66121;52.584;9.694;2024-03-23T03:29:59;100293.66;;;6.61;100.00
77147;BME280;66121;52.584;9.694;2024-03-23T03:32:29;100290.56;;;6.62;100.00
77147;BME280;66121;52.584;9.694;2024-03-23T03:34:54;100277.59;;;6.59;100.00
77147;BME280;66121;52.584;9.694;2024-03-23T03:37:19;100287.94;;;6.69;100.00
77147;BME280;66121;52.584;9.694;2024-03-23T03:39:44;100281.97;;;6.64;100.00
77147;BME280;66121;52.584;9.694;2024-03-23T03:42:10;100260.94;;;6.48;100.00
77147;BME280;66121;52.584;9.694;2024-03-23T03:44:35;100275.63;;;6.60;100.00
77147;BME280;66121;52.584;9.694;2024-03-23T03:47:01;100257.06;;;6.49;100.00
77147;BME280;66121;52.584;9.694;2024-03-23T03:49:27;100278.91;;;6.69;100.00
77147;BME280;66121;52.584;9.694;2024-03-23T03:51:52;100278.19;;;6.72;100.00
77147;BME280;66121;52.584;9.694;2024-03-23T03:54:17;100272.78;;;6.75;100.00
77147;BME280;66121;52.584;9.694;2024-03-23T03:56:43;100279.34;;;6.71;100.00
77147;BME280;66121;52.584;9.694;2024-03-23T03:59:08;100266.69;;;6.63;100.00
77147;BME280;66121;52.584;9.694;2024-03-23T04:01:34;100253.41;;;6.42;100.00
77147;BME280;66121;52.584;9.694;2024-03-23T04:04:01;100275.16;;;6.54;100.00
77147;BME280;66121;52.584;9.694;2024-03-23T04:06:26;100279.06;;;6.53;100.00
77147;BME280;66121;52.584;9.694;2024-03-23T04:08:51;100270.97;;;6.60;100.00
77147;BME280;66121;52.584;9.694;2024-03-23T04:11:17;100273.25;;;6.58;100.00
77147;BME280;66121;52.584;9.694;2024-03-23T04:13:43;100264.88;;;6.47;100.00
77147;BME280;66121;52.584;9.694;2024-03-23T04:16:08;100253.09;;;6.47;100.00
77147;BME280;66121;52.584;9.694;2024-03-23T04:18:34;100252.19;;;6.39;100.00
77147;BME280;66121;52.584;9.694;2024-03-23T04:21:00;100253.09;;;6.47;100.00
77147;BME280;66121;52.584;9.694;2024-03-23T04:23:25;100246.53;;;6.52;100.00
77147;BME280;66121;52.584;9.694;2024-03-23T04:25:50;100236.78;;;6.31;100.00
77147;BME280;66121;52.584;9.694;2024-03-23T04:28:18;100241.22;;;6.39;100.00
77147;BME280;66121;52.584;9.694;2024-03-23T04:30:44;100251.59;;;6.27;100.00
77147;BME280;66121;52.584;9.694;2024-03-23T04:33:09;100248.84;;;6.27;100.00
77147;BME280;66121;52.584;9.694;2024-03-23T04:35:34;100246.09;;;6.27;100.00
77147;BME280;66121;52.584;9.694;2024-03-23T04:38:00;100244.34;;;6.15;100.00
77147;BME280;66121;52.584;9.694;2024-03-23T04:40:26;100238.91;;;6.19;100.00
77147;BME280;66121;52.584;9.694;2024-03-23T04:42:51;100242.50;;;6.23;100.00
77147;BME280;66121;52.584;9.694;2024-03-23T04:45:16;100246.47;;;6.25;100.00
77147;BME280;66121;52.584;9.694;2024-03-23T04:47:42;100251.38;;;6.16;100.00
77147;BME280;66121;52.584;9.694;2024-03-23T04:50:07;100230.63;;;5.93;100.00
77147;BME280;66121;52.584;9.694;2024-03-23T04:52:33;100259.78;;;6.04;100.00
77147;BME280;66121;52.584;9.694;2024-03-23T04:54:58;100250.88;;;6.11;100.00
77147;BME280;66121;52.584;9.694;2024-03-23T04:57:24;100257.44;;;6.06;100.00
77147;BME280;66121;52.584;9.694;2024-03-23T04:59:49;100247.72;;;6.09;100.00
77147;BME280;66121;52.584;9.694;2024-03-23T05:02:15;100239.16;;;6.10;100.00
77147;BME280;66121;52.584;9.694;2024-03-23T05:04:40;100234.91;;;6.13;100.00
77147;BME280;66121;52.584;9.694;2024-03-23T05:07:06;100240.38;;;6.13;100.00
77147;BME280;66121;52.584;9.694;2024-03-23T05:09:31;100243.88;;;6.13;100.00
77147;BME280;66121;52.584;9.694;2024-03-23T05:11:58;100233.72;;;6.14;100.00
77147;BME280;66121;52.584;9.694;2024-03-23T05:14:24;100233.25;;;6.08;100.00
77147;BME280;66121;52.584;9.694;2024-03-23T05:16:49;100222.22;;;6.05;100.00
77147;BME280;66121;52.584;9.694;2024-03-23T05:19:14;100215.09;;;6.00;100.00
77147;BME280;66121;52.584;9.694;2024-03-23T05:21:40;100176.66;;;5.93;100.00
77147;BME280;66121;52.584;9.694;2024-03-23T05:24:05;100196.91;;;6.11;100.00
77147;BME280;66121;52.584;9.694;2024-03-23T05:26:30;100186.69;;;6.08;100.00
77147;BME280;66121;52.584;9.694;2024-03-23T05:28:56;100195.25;;;6.07;100.00
77147;BME280;66121;52.584;9.694;2024-03-23T05:31:25;100185.50;;;5.87;100.00
77147;BME280;66121;52.584;9.694;2024-03-23T05:33:50;100157.78;;;5.69;100.00
77147;BME280;66121;52.584;9.694;2024-03-23T05:36:17;100179.16;;;5.82;100.00
77147;BME280;66121;52.584;9.694;2024-03-23T05:38:42;100191.25;;;6.01;100.00
77147;BME280;66121;52.584;9.694;2024-03-23T05:41:07;100193.91;;;5.97;100.00
77147;BME280;66121;52.584;9.694;2024-03-23T05:43:33;100187.53;;;5.90;100.00
77147;BME280;66121;52.584;9.694;2024-03-23T05:45:59;100192.78;;;5.98;100.00
77147;BME280;66121;52.584;9.694;2024-03-23T05:48:26;100184.50;;;5.95;100.00
77147;BME280;66121;52.584;9.694;2024-03-23T05:50:52;100186.50;;;5.98;100.00
77147;BME280;66121;52.584;9.694;2024-03-23T05:53:18;100177.59;;;6.04;100.00
77147;BME280;66121;52.584;9.694;2024-03-23T05:55:45;100162.97;;;5.93;100.00
77147;BME280;66121;52.584;9.694;2024-03-23T05:58:10;100178.78;;;6.03;100.00
77147;BME280;66121;52.584;9.694;2024-03-23T06:00:36;100169.66;;;5.96;100.00
77147;BME280;66121;52.584;9.694;2024-03-23T06:03:01;100186.84;;;5.96;100.00
77147;BME280;66121;52.584;9.694;2024-03-23T06:05:27;100177.13;;;5.99;100.00
77147;BME280;66121;52.584;9.694;2024-03-23T06:07:52;100179.63;;;6.07;100.00
77147;BME280;66121;52.584;9.694;2024-03-23T06:10:18;100181.53;;;6.03;100.00
77147;BME280;66121;52.584;9.694;2024-03-23T06:12:43;100188.16;;;6.02;100.00
77147;BME280;66121;52.584;9.694;2024-03-23T06:15:09;100187.88;;;6.11;100.00
77147;BME280;66121;52.584;9.694;2024-03-23T06:17:36;100190.78;;;6.18;100.00
77147;BME280;66121;52.584;9.694;2024-03-23T06:20:02;100198.31;;;6.24;100.00
77147;BME280;66121;52.584;9.694;2024-03-23T06:22:27;100193.56;;;6.21;100.00
77147;BME280;66121;52.584;9.694;2024-03-23T06:24:52;100193.81;;;6.13;100.00
77147;BME280;66121;52.584;9.694;2024-03-23T06:27:18;100192.72;;;6.17;100.00
77147;BME280;66121;52.584;9.694;2024-03-23T06:29:44;100195.03;;;6.15;100.00
77147;BME280;66121;52.584;9.694;2024-03-23T06:32:09;100167.16;;;6.10;100.00
77147;BME280;66121;52.584;9.694;2024-03-23T06:34:34;100181.16;;;6.27;100.00
77147;BME280;66121;52.584;9.694;2024-03-23T06:37:00;100180.88;;;6.36;100.00
77147;BME280;66121;52.584;9.694;2024-03-23T06:39:25;100178.22;;;6.39;100.00
77147;BME280;66121;52.584;9.694;2024-03-23T06:41:54;100177.41;;;6.39;100.00
77147;BME280;66121;52.584;9.694;2024-03-23T06:44:20;100176.47;;;6.28;100.00
77147;BME280;66121;52.584;9.694;2024-03-23T06:46:46;100179.31;;;6.35;100.00
77147;BME280;66121;52.584;9.694;2024-03-23T06:49:11;100158.66;;;6.18;100.00
77147;BME280;66121;52.584;9.694;2024-03-23T06:51:37;100194.13;;;6.30;100.00
77147;BME280;66121;52.584;9.694;2024-03-23T06:54:05;100175.84;;;6.15;100.00
77147;BME280;66121;52.584;9.694;2024-03-23T06:56:30;100175.16;;;6.44;100.00
77147;BME280;66121;52.584;9.694;2024-03-23T06:58:56;100168.53;;;6.45;100.00
77147;BME280;66121;52.584;9.694;2024-03-23T07:01:21;100181.16;;;6.54;100.00
77147;BME280;66121;52.584;9.694;2024-03-23T07:03:47;100175.25;;;6.52;100.00
77147;BME280;66121;52.584;9.694;2024-03-23T07:06:12;100179.63;;;6.56;100.00
77147;BME280;66121;52.584;9.694;2024-03-23T07:08:37;100174.69;;;6.65;100.00
77147;BME280;66121;52.584;9.694;2024-03-23T07:11:03;100175.13;;;6.67;100.00
77147;BME280;66121;52.584;9.694;2024-03-23T07:13:28;100180.47;;;6.86;100.00
77147;BME280;66121;52.584;9.694;2024-03-23T07:15:54;100169.47;;;6.83;100.00
77147;BME280;66121;52.584;9.694;2024-03-23T07:18:21;100146.78;;;6.86;100.00
77147;BME280;66121;52.584;9.694;2024-03-23T07:20:56;100161.53;;;7.04;100.00
77147;BME280;66121;52.584;9.694;2024-03-23T07:23:22;100149.06;;;7.10;100.00
77147;BME280;66121;52.584;9.694;2024-03-23T07:25:57;100147.28;;;7.25;100.00
77147;BME280;66121;52.584;9.694;2024-03-23T07:28:23;100156.31;;;7.25;100.00
77147;BME280;66121;52.584;9.694;2024-03-23T07:31:16;100154.66;;;7.50;100.00
77147;BME280;66121;52.584;9.694;2024-03-23T07:33:47;100150.81;;;7.58;100.00
77147;BME280;66121;52.584;9.694;2024-03-23T07:36:12;100123.69;;;7.53;100.00
77147;BME280;66121;52.584;9.694;2024-03-23T07:38:41;100126.56;;;7.64;100.00
77147;BME280;66121;52.584;9.694;2024-03-23T07:41:08;100135.44;;;7.87;100.00
77147;BME280;66121;52.584;9.694;2024-03-23T07:43:34;100131.94;;;7.90;100.00
77147;BME280;66121;52.584;9.694;2024-03-23T07:46:00;100105.97;;;7.84;100.00
77147;BME280;66121;52.584;9.694;2024-03-23T07:48:26;100108.78;;;7.91;100.00
77147;BME280;66121;52.584;9.694;2024-03-23T07:53:22;100117.41;;;7.90;100.00
77147;BME280;66121;52.584;9.694;2024-03-23T07:55:55;100114.09;;;7.70;100.00
77147;BME280;66121;52.584;9.694;2024-03-23T07:58:21;100112.19;;;7.77;100.00
77147;BME280;66121;52.584;9.694;2024-03-23T08:00:46;100108.25;;;7.75;100.00
77147;BME280;66121;52.584;9.694;2024-03-23T08:03:11;100094.13;;;7.76;100.00
77147;BME280;66121;52.584;9.694;2024-03-23T08:05:37;100093.84;;;7.89;100.00
77147;BME280;66121;52.584;9.694;2024-03-23T08:08:02;100088.44;;;7.99;100.00
77147;BME280;66121;52.584;9.694;2024-03-23T08:10:27;100077.56;;;8.13;100.00
77147;BME280;66121;52.584;9.694;2024-03-23T08:12:53;100077.19;;;8.15;100.00
77147;BME280;66121;52.584;9.694;2024-03-23T08:15:18;100063.66;;;8.39;100.00
77147;BME280;66121;52.584;9.694;2024-03-23T08:17:43;100043.81;;;8.81;100.00
77147;BME280;66121;52.584;9.694;2024-03-23T08:20:09;100044.28;;;9.01;100.00
77147;BME280;66121;52.584;9.694;2024-03-23T08:22:34;100029.78;;;9.15;100.00
77147;BME280;66121;52.584;9.694;2024-03-23T08:25:00;100006.63;;;9.47;100.00
77147;BME280;66121;52.584;9.694;2024-03-23T08:27:25;99978.69;;;9.28;100.00
77147;BME280;66121;52.584;9.694;2024-03-23T08:29:50;99956.28;;;9.19;100.00
77147;BME280;66121;52.584;9.694;2024-03-23T08:32:16;99944.88;;;9.27;100.00
77147;BME280;66121;52.584;9.694;2024-03-23T08:34:42;99920.09;;;9.69;100.00
77147;BME280;66121;52.584;9.694;2024-03-23T08:37:07;99873.66;;;8.97;97.43
77147;BME280;66121;52.584;9.694;2024-03-23T08:39:32;99882.72;;;9.54;96.79
77147;BME280;66121;52.584;9.694;2024-03-23T08:41:58;99854.81;;;9.42;95.65
77147;BME280;66121;52.584;9.694;2024-03-23T08:44:23;99839.09;;;8.93;93.68
77147;BME280;66121;52.584;9.694;2024-03-23T08:46:48;99861.47;;;8.88;94.93
77147;BME280;66121;52.584;9.694;2024-03-23T08:49:14;99861.44;;;8.63;94.72
77147;BME280;66121;52.584;9.694;2024-03-23T08:51:39;99901.09;;;8.45;96.00
77147;BME280;66121;52.584;9.694;2024-03-23T08:54:04;99918.75;;;8.40;96.95
77147;BME280;66121;52.584;9.694;2024-03-23T08:56:30;99921.63;;;8.93;96.51
77147;BME280;66121;52.584;9.694;2024-03-23T08:58:55;99896.50;;;9.01;95.60
77147;BME280;66121;52.584;9.694;2024-03-23T09:01:20;99960.50;;;8.81;96.49
77147;BME280;66121;52.584;9.694;2024-03-23T09:03:46;99964.53;;;9.36;96.41
77147;BME280;66121;52.584;9.694;2024-03-23T09:06:12;99940.09;;;10.19;94.27
77147;BME280;66121;52.584;9.694;2024-03-23T09:08:38;99916.56;;;11.35;92.32
77147;BME280;66121;52.584;9.694;2024-03-23T09:11:10;99823.41;;;11.39;87.20
77147;BME280;66121;52.584;9.694;2024-03-23T09:13:36;99825.41;;;10.32;85.32
77147;BME280;66121;52.584;9.694;2024-03-23T09:16:02;99879.88;;;9.90;86.53
77147;BME280;66121;52.584;9.694;2024-03-23T09:18:31;99887.81;;;9.52;87.11
77147;BME280;66121;52.584;9.694;2024-03-23T09:20:57;99899.22;;;10.80;86.68
77147;BME280;66121;52.584;9.694;2024-03-23T09:23:22;99897.31;;;10.70;86.62
77147;BME280;66121;52.584;9.694;2024-03-23T09:25:48;99788.44;;;11.26;82.37
77147;BME280;66121;52.584;9.694;2024-03-23T09:28:13;99741.50;;;10.30;80.86
77147;BME280;66121;52.584;9.694;2024-03-23T09:30:39;99727.16;;;9.91;80.32
77147;BME280;66121;52.584;9.694;2024-03-23T09:33:08;99749.88;;;11.52;79.71
77147;BME280;66121;52.584;9.694;2024-03-23T09:35:37;99700.59;;;12.11;76.97
77147;BME280;66121;52.584;9.694;2024-03-23T09:38:03;99678.63;;;12.51;75.27
77147;BME280;66121;52.584;9.694;2024-03-23T09:40:29;99679.41;;;12.74;73.95
77147;BME280;66121;52.584;9.694;2024-03-23T09:42:54;99584.75;;;12.40;71.33
77147;BME280;66121;52.584;9.694;2024-03-23T09:45:22;99636.56;;;12.13;72.06
77147;BME280;66121;52.584;9.694;2024-03-23T09:47:48;99694.13;;;11.61;74.20
77147;BME280;66121;52.584;9.694;2024-03-23T09:50:15;99663.31;;;10.95;72.90
77147;BME280;66121;52.584;9.694;2024-03-23T09:52:41;99649.66;;;10.40;72.83
77147;BME280;66121;52.584;9.694;2024-03-23T09:55:08;99691.66;;;10.62;73.21
77147;BME280;66121;52.584;9.694;2024-03-23T09:57:33;99649.28;;;11.50;71.68
77147;BME280;66121;52.584;9.694;2024-03-23T09:59:59;99557.63;;;11.28;68.84
77147;BME280;66121;52.584;9.694;2024-03-23T10:02:25;99584.31;;;11.69;68.22
77147;BME280;66121;52.584;9.694;2024-03-23T10:04:51;99564.59;;;12.40;67.89
77147;BME280;66121;52.584;9.694;2024-03-23T10:07:20;99618.19;;;12.92;67.92
77147;BME280;66121;52.584;9.694;2024-03-23T10:09:47;99573.63;;;13.26;66.34
77147;BME280;66121;52.584;9.694;2024-03-23T10:12:15;99538.38;;;13.62;64.75
77147;BME280;66121;52.584;9.694;2024-03-23T10:14:41;99498.44;;;13.60;63.31
77147;BME280;66121;52.584;9.694;2024-03-23T10:19:48;99484.13;;;13.61;61.94
77147;BME280;66121;52.584;9.694;2024-03-23T10:22:21;99418.31;;;13.65;59.23
77147;BME280;66121;52.584;9.694;2024-03-23T10:24:48;99456.16;;;14.61;59.78
77147;BME280;66121;52.584;9.694;2024-03-23T10:27:19;99448.84;;;12.18;60.03
77147;BME280;66121;52.584;9.694;2024-03-23T10:29:48;99484.09;;;11.64;61.31
77147;BME280;66121;52.584;9.694;2024-03-23T10:32:15;99510.22;;;11.33;61.91
77147;BME280;66121;52.584;9.694;2024-03-23T10:34:41;99528.31;;;11.08;62.91
77147;BME280;66121;52.584;9.694;2024-03-23T10:37:07;99634.19;;;11.58;65.11
77147;BME280;66121;52.584;9.694;2024-03-23T10:42:02;99758.13;;;8.90;69.33
77147;BME280;66121;52.584;9.694;2024-03-23T10:44:28;99906.06;;;7.56;73.96
77147;BME280;66121;52.584;9.694;2024-03-23T10:46:55;100005.16;;;6.67;78.96
77147;BME280;66121;52.584;9.694;2024-03-23T10:49:26;100066.59;;;6.10;82.47
77147;BME280;66121;52.584;9.694;2024-03-23T10:51:52;100125.47;;;5.97;85.14
77147;BME280;66121;52.584;9.694;2024-03-23T10:54:19;100157.78;;;5.88;87.94
77147;BME280;66121;52.584;9.694;2024-03-23T10:56:46;100167.78;;;5.80;90.45
77147;BME280;66121;52.584;9.694;2024-03-23T10:59:13;100193.13;;;5.97;92.59
77147;BME280;66121;52.584;9.694;2024-03-23T11:01:56;100192.47;;;6.03;94.46
77147;BME280;66121;52.584;9.694;2024-03-23T11:04:34;100187.00;;;6.03;95.70
77147;BME280;66121;52.584;9.694;2024-03-23T11:07:01;100182.09;;;6.16;96.31
77147;BME280;66121;52.584;9.694;2024-03-23T11:14:57;100163.56;;;7.77;96.93
77147;BME280;66121;52.584;9.694;2024-03-23T11:17:25;100133.53;;;8.35;94.74
77147;BME280;66121;52.584;9.694;2024-03-23T11:22:39;100064.53;;;10.28;89.68
77147;BME280;66121;52.584;9.694;2024-03-23T11:25:21;99989.72;;;10.19;84.43
77147;BME280;66121;52.584;9.694;2024-03-23T11:27:48;99972.03;;;9.71;82.41
77147;BME280;66121;52.584;9.694;2024-03-23T11:32:42;99972.41;;;9.27;81.52
77147;BME280;66121;52.584;9.694;2024-03-23T11:35:08;100051.03;;;8.31;83.81
77147;BME280;66121;52.584;9.694;2024-03-23T11:37:38;100097.97;;;7.68;85.77
77147;BME280;66121;52.584;9.694;2024-03-23T11:40:29;100129.22;;;7.20;87.29
77147;BME280;66121;52.584;9.694;2024-03-23T11:43:03;100140.22;;;6.94;88.08
77147;BME280;66121;52.584;9.694;2024-03-23T11:45:29;100165.72;;;7.24;89.71
77147;BME280;66121;52.584;9.694;2024-03-23T11:48:11;100164.03;;;7.16;90.75
77147;BME280;66121;52.584;9.694;2024-03-23T11:50:41;100147.22;;;7.18;90.54
77147;BME280;66121;52.584;9.694;2024-03-23T11:53:08;100108.34;;;7.12;89.78
77147;BME280;66121;52.584;9.694;2024-03-23T11:58:12;100104.66;;;7.01;91.01
77147;BME280;66121;52.584;9.694;2024-03-23T12:00:37;100145.19;;;7.44;91.26
77147;BME280;66121;52.584;9.694;2024-03-23T12:03:03;100129.34;;;7.67;90.74
77147;BME280;66121;52.584;9.694;2024-03-23T12:05:29;100112.19;;;7.77;89.86
77147;BME280;66121;52.584;9.694;2024-03-23T12:07:55;100082.94;;;7.99;88.45
77147;BME280;66121;52.584;9.694;2024-03-23T12:10:20;100060.72;;;8.80;86.60
77147;BME280;66121;52.584;9.694;2024-03-23T12:12:46;100042.47;;;9.79;86.03
77147;BME280;66121;52.584;9.694;2024-03-23T12:15:11;100029.03;;;10.38;84.74
77147;BME280;66121;52.584;9.694;2024-03-23T12:17:38;99950.19;;;10.58;81.19
77147;BME280;66121;52.584;9.694;2024-03-23T12:20:04;99925.53;;;10.98;80.20
77147;BME280;66121;52.584;9.694;2024-03-23T12:22:30;99853.19;;;11.18;76.78
77147;BME280;66121;52.584;9.694;2024-03-23T12:24:56;99804.88;;;10.95;74.76
77147;BME280;66121;52.584;9.694;2024-03-23T12:27:22;99831.47;;;11.23;75.03
77147;BME280;66121;52.584;9.694;2024-03-23T12:29:47;99818.03;;;11.25;74.88
77147;BME280;66121;52.584;9.694;2024-03-23T12:32:14;99700.31;;;11.38;71.28
77147;BME280;66121;52.584;9.694;2024-03-23T12:34:39;99692.16;;;11.61;70.39
77147;BME280;66121;52.584;9.694;2024-03-23T12:37:05;99701.38;;;11.51;69.66
77147;BME280;66121;52.584;9.694;2024-03-23T12:39:36;99663.84;;;11.54;69.94
77147;BME280;66121;52.584;9.694;2024-03-23T12:42:05;99657.19;;;11.48;68.12
77147;BME280;66121;52.584;9.694;2024-03-23T12:44:30;99656.16;;;11.35;69.19
77147;BME280;66121;52.584;9.694;2024-03-23T12:46:56;99673.19;;;10.96;69.37
77147;BME280;66121;52.584;9.694;2024-03-23T12:49:22;99728.06;;;11.28;70.61
77147;BME280;66121;52.584;9.694;2024-03-23T12:51:54;99696.09;;;10.89;70.46
77147;BME280;66121;52.584;9.694;2024-03-23T12:54:24;99708.97;;;11.07;70.89
77147;BME280;66121;52.584;9.694;2024-03-23T12:56:50;99690.44;;;10.66;70.37
77147;BME280;66121;52.584;9.694;2024-03-23T12:59:15;99682.59;;;10.06;70.39
77147;BME280;66121;52.584;9.694;2024-03-23T13:01:43;99709.06;;;9.86;71.18
77147;BME280;66121;52.584;9.694;2024-03-23T13:04:09;99747.31;;;9.77;72.54
77147;BME280;66121;52.584;9.694;2024-03-23T13:06:34;99771.38;;;9.55;72.97
77147;BME280;66121;52.584;9.694;2024-03-23T13:09:01;99785.13;;;9.69;73.62
77147;BME280;66121;52.584;9.694;2024-03-23T13:11:27;99763.81;;;10.53;72.96
77147;BME280;66121;52.584;9.694;2024-03-23T13:13:52;99711.06;;;11.29;71.45
77147;BME280;66121;52.584;9.694;2024-03-23T13:16:18;99641.56;;;11.04;69.05
77147;BME280;66121;52.584;9.694;2024-03-23T13:18:43;99628.06;;;11.74;68.24
77147;BME280;66121;52.584;9.694;2024-03-23T13:21:08;99548.66;;;11.21;66.62
77147;BME280;66121;52.584;9.694;2024-03-23T13:23:34;99613.34;;;11.50;67.73
77147;BME280;66121;52.584;9.694;2024-03-23T13:26:01;99597.47;;;12.57;66.93
77147;BME280;66121;52.584;9.694;2024-03-23T13:28:26;99451.41;;;12.68;62.93
77147;BME280;66121;52.584;9.694;2024-03-23T13:30:52;99429.63;;;12.86;62.57
77147;BME280;66121;52.584;9.694;2024-03-23T13:33:17;99393.88;;;12.01;61.51
77147;BME280;66121;52.584;9.694;2024-03-23T13:35:52;99453.53;;;11.25;63.09
77147;BME280;66121;52.584;9.694;2024-03-23T13:38:18;99539.09;;;10.98;65.26
77147;BME280;66121;52.584;9.694;2024-03-23T13:43:15;99581.78;;;11.81;65.23
77147;BME280;66121;52.584;9.694;2024-03-23T13:45:40;99531.16;;;12.54;63.04
77147;BME280;66121;52.584;9.694;2024-03-23T13:48:06;99451.81;;;11.85;60.95
77147;BME280;66121;52.584;9.694;2024-03-23T13:50:31;99484.34;;;11.47;61.83
77147;BME280;66121;52.584;9.694;2024-03-23T13:52:56;99511.56;;;12.84;61.27
77147;BME280;66121;52.584;9.694;2024-03-23T13:55:22;99512.91;;;12.56;61.04
77147;BME280;66121;52.584;9.694;2024-03-23T13:57:48;99495.66;;;11.29;62.51
77147;BME280;66121;52.584;9.694;2024-03-23T14:00:14;99496.41;;;10.76;62.17
77147;BME280;66121;52.584;9.694;2024-03-23T14:02:39;99450.38;;;9.95;61.21
77147;BME280;66121;52.584;9.694;2024-03-23T14:05:05;99486.69;;;9.87;62.00
77147;BME280;66121;52.584;9.694;2024-03-23T14:07:30;99531.28;;;9.71;63.41